sensor_id;sensor_type;location;lat;lon;timestamp;P1;durP1;ratioP1;P2;durP2;ratioP2
78167;SDS011;67410;42.698;23.378;2024-01-16T00:00:57;53.80;;;23.98;;
78167;SDS011;67410;42.698;23.378;2024-01-16T00:03:23;54.00;;;24.70;;
78167;SDS011;67410;42.698;23.378;2024-01-16T00:05:49;42.45;;;18.33;;
78167;SDS011;67410;42.698;23.378;2024-01-16T00:08:15;54.72;;;22.50;;
78167;SDS011;67410;42.698;23.378;2024-01-16T00:10:41;48.28;;;20.13;;
78167;SDS011;67410;42.698;23.378;2024-01-16T00:13:09;56.08;;;22.35;;
78167;SDS011;67410;42.698;23.378;2024-01-16T00:15:35;74.65;;;30.17;;
78167;SDS011;67410;42.698;23.378;2024-01-16T00:18:01;37.80;;;18.92;;
78167;SDS011;67410;42.698;23.378;2024-01-16T00:20:27;46.17;;;19.75;;
78167;SDS011;67410;42.698;23.378;2024-01-16T00:22:53;46.13;;;21.67;;
78167;SDS011;67410;42.698;23.378;2024-01-16T00:25:19;48.92;;;22.58;;
78167;SDS011;67410;42.698;23.378;2024-01-16T00:27:46;59.15;;;26.02;;
78167;SDS011;67410;42.698;23.378;2024-01-16T00:30:12;54.92;;;21.33;;
78167;SDS011;67410;42.698;23.378;2024-01-16T00:32:39;30.85;;;14.13;;
78167;SDS011;67410;42.698;23.378;2024-01-16T00:35:05;28.75;;;13.63;;
78167;SDS011;67410;42.698;23.378;2024-01-16T00:37:31;40.05;;;18.88;;
78167;SDS011;67410;42.698;23.378;2024-01-16T00:39:57;72.28;;;31.23;;
78167;SDS011;67410;42.698;23.378;2024-01-16T00:42:23;95.57;;;42.95;;
78167;SDS011;67410;42.698;23.378;2024-01-16T00:44:49;86.68;;;37.78;;
78167;SDS011;67410;42.698;23.378;2024-01-16T00:47:16;67.82;;;29.70;;
78167;SDS011;67410;42.698;23.378;2024-01-16T00:49:42;67.63;;;26.85;;
78167;SDS011;67410;42.698;23.378;2024-01-16T00:52:08;62.55;;;29.15;;
78167;SDS011;67410;42.698;23.378;2024-01-16T00:54:35;42.20;;;19.63;;
78167;SDS011;67410;42.698;23.378;2024-01-16T00:57:01;44.22;;;17.85;;
78167;SDS011;67410;42.698;23.378;2024-01-16T00:59:28;39.85;;;18.27;;
78167;SDS011;67410;42.698;23.378;2024-01-16T01:01:54;36.45;;;15.77;;
78167;SDS011;67410;42.698;23.378;2024-01-16T01:04:20;38.17;;;15.65;;
78167;SDS011;67410;42.698;23.378;2024-01-16T01:06:46;39.90;;;17.00;;
78167;SDS011;67410;42.698;23.378;2024-01-16T01:09:12;28.33;;;13.63;;
78167;SDS011;67410;42.698;23.378;2024-01-16T01:11:38;26.40;;;13.00;;
78167;SDS011;67410;42.698;23.378;2024-01-16T01:14:05;31.15;;;15.25;;
78167;SDS011;67410;42.698;23.378;2024-01-16T01:16:31;34.17;;;15.95;;
78167;SDS011;67410;42.698;23.378;2024-01-16T01:18:57;32.15;;;14.02;;
78167;SDS011;67410;42.698;23.378;2024-01-16T01:21:24;40.13;;;16.13;;
78167;SDS011;67410;42.698;23.378;2024-01-16T01:23:51;25.60;;;13.38;;
78167;SDS011;67410;42.698;23.378;2024-01-16T01:26:17;26.02;;;12.95;;
78167;SDS011;67410;42.698;23.378;2024-01-16T01:28:46;28.80;;;13.13;;
78167;SDS011;67410;42.698;23.378;2024-01-16T01:31:12;32.88;;;13.82;;
78167;SDS011;67410;42.698;23.378;2024-01-16T01:33:39;26.65;;;12.30;;
78167;SDS011;67410;42.698;23.378;2024-01-16T01:36:05;30.65;;;14.77;;
78167;SDS011;67410;42.698;23.378;2024-01-16T01:38:31;30.08;;;15.00;;
78167;SDS011;67410;42.698;23.378;2024-01-16T01:40:58;33.30;;;14.82;;
78167;SDS011;67410;42.698;23.378;2024-01-16T01:43:24;28.63;;;13.55;;
78167;SDS011;67410;42.698;23.378;2024-01-16T01:46:08;27.23;;;13.23;;
78167;SDS011;67410;42.698;23.378;2024-01-16T01:48:37;35.85;;;17.25;;
78167;SDS011;67410;42.698;23.378;2024-01-16T01:51:05;31.50;;;13.98;;
78167;SDS011;67410;42.698;23.378;2024-01-16T01:53:32;33.83;;;17.95;;
78167;SDS011;67410;42.698;23.378;2024-01-16T01:56:04;70.97;;;27.02;;
78167;SDS011;67410;42.698;23.378;2024-01-16T01:58:35;30.02;;;13.43;;
78167;SDS011;67410;42.698;23.378;2024-01-16T02:01:04;55.10;;;21.35;;
78167;SDS011;67410;42.698;23.378;2024-01-16T02:03:35;37.03;;;15.00;;
78167;SDS011;67410;42.698;23.378;2024-01-16T02:06:06;31.20;;;14.18;;
78167;SDS011;67410;42.698;23.378;2024-01-16T02:08:32;22.23;;;11.52;;
78167;SDS011;67410;42.698;23.378;2024-01-16T02:10:59;25.67;;;11.57;;
78167;SDS011;67410;42.698;23.378;2024-01-16T02:13:25;18.05;;;10.07;;
78167;SDS011;67410;42.698;23.378;2024-01-16T02:15:51;24.40;;;12.38;;
78167;SDS011;67410;42.698;23.378;2024-01-16T02:18:17;24.67;;;12.82;;
78167;SDS011;67410;42.698;23.378;2024-01-16T02:20:44;24.67;;;11.65;;
78167;SDS011;67410;42.698;23.378;2024-01-16T02:23:12;25.85;;;13.70;;
78167;SDS011;67410;42.698;23.378;2024-01-16T02:28:07;25.27;;;13.25;;
78167;SDS011;67410;42.698;23.378;2024-01-16T02:30:33;35.45;;;14.60;;
78167;SDS011;67410;42.698;23.378;2024-01-16T02:33:00;28.98;;;14.32;;
78167;SDS011;67410;42.698;23.378;2024-01-16T02:35:26;30.10;;;14.88;;
78167;SDS011;67410;42.698;23.378;2024-01-16T02:37:52;77.18;;;31.45;;
78167;SDS011;67410;42.698;23.378;2024-01-16T02:40:18;107.55;;;43.22;;
78167;SDS011;67410;42.698;23.378;2024-01-16T02:42:44;205.18;;;76.35;;
78167;SDS011;67410;42.698;23.378;2024-01-16T02:45:10;144.63;;;59.08;;
78167;SDS011;67410;42.698;23.378;2024-01-16T02:47:37;128.50;;;55.38;;
78167;SDS011;67410;42.698;23.378;2024-01-16T02:50:03;81.65;;;36.13;;
78167;SDS011;67410;42.698;23.378;2024-01-16T02:52:31;64.93;;;27.75;;
78167;SDS011;67410;42.698;23.378;2024-01-16T02:54:57;51.25;;;22.55;;
78167;SDS011;67410;42.698;23.378;2024-01-16T02:57:23;37.75;;;18.15;;
78167;SDS011;67410;42.698;23.378;2024-01-16T02:59:49;25.98;;;13.82;;
78167;SDS011;67410;42.698;23.378;2024-01-16T03:02:15;39.97;;;18.73;;
78167;SDS011;67410;42.698;23.378;2024-01-16T03:04:41;43.35;;;17.88;;
78167;SDS011;67410;42.698;23.378;2024-01-16T03:07:07;47.95;;;21.02;;
78167;SDS011;67410;42.698;23.378;2024-01-16T03:09:33;51.08;;;22.00;;
78167;SDS011;67410;42.698;23.378;2024-01-16T03:12:00;34.88;;;15.55;;
78167;SDS011;67410;42.698;23.378;2024-01-16T03:14:26;30.63;;;14.73;;
78167;SDS011;67410;42.698;23.378;2024-01-16T03:16:52;36.72;;;15.95;;
78167;SDS011;67410;42.698;23.378;2024-01-16T03:19:18;41.53;;;19.40;;
78167;SDS011;67410;42.698;23.378;2024-01-16T03:21:44;26.67;;;12.63;;
78167;SDS011;67410;42.698;23.378;2024-01-16T03:24:10;25.30;;;11.98;;
78167;SDS011;67410;42.698;23.378;2024-01-16T03:26:36;53.25;;;18.98;;
78167;SDS011;67410;42.698;23.378;2024-01-16T03:29:06;11.60;;;5.03;;
78167;SDS011;67410;42.698;23.378;2024-01-16T03:31:32;8.77;;;4.85;;
78167;SDS011;67410;42.698;23.378;2024-01-16T03:33:58;8.90;;;4.53;;
78167;SDS011;67410;42.698;23.378;2024-01-16T03:36:24;7.00;;;3.70;;
78167;SDS011;67410;42.698;23.378;2024-01-16T03:38:50;6.25;;;4.35;;
78167;SDS011;67410;42.698;23.378;2024-01-16T03:41:16;5.30;;;3.55;;
78167;SDS011;67410;42.698;23.378;2024-01-16T03:43:42;7.22;;;4.25;;
78167;SDS011;67410;42.698;23.378;2024-01-16T03:46:10;8.23;;;4.35;;
78167;SDS011;67410;42.698;23.378;2024-01-16T03:48:37;9.30;;;5.05;;
78167;SDS011;67410;42.698;23.378;2024-01-16T03:51:03;7.78;;;4.68;;
78167;SDS011;67410;42.698;23.378;2024-01-16T03:53:29;9.48;;;5.03;;
78167;SDS011;67410;42.698;23.378;2024-01-16T03:55:55;8.32;;;4.35;;
78167;SDS011;67410;42.698;23.378;2024-01-16T03:58:23;6.95;;;4.47;;
78167;SDS011;67410;42.698;23.378;2024-01-16T04:00:49;4.78;;;3.20;;
78167;SDS011;67410;42.698;23.378;2024-01-16T04:03:16;7.32;;;4.07;;
78167;SDS011;67410;42.698;23.378;2024-01-16T04:05:43;6.13;;;3.40;;
78167;SDS011;67410;42.698;23.378;2024-01-16T04:08:09;5.63;;;3.10;;
78167;SDS011;67410;42.698;23.378;2024-01-16T04:10:36;4.18;;;2.72;;
78167;SDS011;67410;42.698;23.378;2024-01-16T04:13:02;4.85;;;3.17;;
78167;SDS011;67410;42.698;23.378;2024-01-16T04:15:29;5.80;;;3.33;;
78167;SDS011;67410;42.698;23.378;2024-01-16T04:17:55;20.70;;;10.70;;
78167;SDS011;67410;42.698;23.378;2024-01-16T04:20:21;7.85;;;3.80;;
78167;SDS011;67410;42.698;23.378;2024-01-16T04:22:47;52.67;;;16.13;;
78167;SDS011;67410;42.698;23.378;2024-01-16T04:25:14;5.88;;;2.90;;
78167;SDS011;67410;42.698;23.378;2024-01-16T04:27:41;6.43;;;3.45;;
78167;SDS011;67410;42.698;23.378;2024-01-16T04:30:07;4.72;;;2.75;;
78167;SDS011;67410;42.698;23.378;2024-01-16T04:32:34;3.92;;;2.58;;
78167;SDS011;67410;42.698;23.378;2024-01-16T04:35:00;6.05;;;2.85;;
78167;SDS011;67410;42.698;23.378;2024-01-16T04:37:26;6.07;;;3.60;;
78167;SDS011;67410;42.698;23.378;2024-01-16T04:39:52;3.42;;;2.42;;
78167;SDS011;67410;42.698;23.378;2024-01-16T04:42:19;6.38;;;3.88;;
78167;SDS011;67410;42.698;23.378;2024-01-16T04:44:45;4.00;;;3.10;;
78167;SDS011;67410;42.698;23.378;2024-01-16T04:47:11;5.13;;;3.10;;
78167;SDS011;67410;42.698;23.378;2024-01-16T04:49:38;7.63;;;3.53;;
78167;SDS011;67410;42.698;23.378;2024-01-16T04:52:04;4.10;;;2.58;;
78167;SDS011;67410;42.698;23.378;2024-01-16T04:54:30;5.85;;;3.15;;
78167;SDS011;67410;42.698;23.378;2024-01-16T04:56:57;6.18;;;3.80;;
78167;SDS011;67410;42.698;23.378;2024-01-16T04:59:23;6.55;;;2.67;;
78167;SDS011;67410;42.698;23.378;2024-01-16T05:01:50;3.08;;;2.05;;
78167;SDS011;67410;42.698;23.378;2024-01-16T05:04:16;4.13;;;2.60;;
78167;SDS011;67410;42.698;23.378;2024-01-16T05:06:43;5.43;;;2.72;;
78167;SDS011;67410;42.698;23.378;2024-01-16T05:09:09;4.05;;;1.83;;
78167;SDS011;67410;42.698;23.378;2024-01-16T05:11:35;5.20;;;2.95;;
78167;SDS011;67410;42.698;23.378;2024-01-16T05:14:01;4.30;;;2.83;;
78167;SDS011;67410;42.698;23.378;2024-01-16T05:16:27;6.65;;;2.60;;
78167;SDS011;67410;42.698;23.378;2024-01-16T05:18:53;7.15;;;3.20;;
78167;SDS011;67410;42.698;23.378;2024-01-16T05:21:20;5.35;;;2.88;;
78167;SDS011;67410;42.698;23.378;2024-01-16T05:23:47;3.45;;;2.38;;
78167;SDS011;67410;42.698;23.378;2024-01-16T05:26:13;6.40;;;3.22;;
78167;SDS011;67410;42.698;23.378;2024-01-16T05:28:39;3.17;;;2.58;;
78167;SDS011;67410;42.698;23.378;2024-01-16T05:31:06;5.32;;;2.95;;
78167;SDS011;67410;42.698;23.378;2024-01-16T05:33:33;4.85;;;2.90;;
78167;SDS011;67410;42.698;23.378;2024-01-16T05:35:59;6.57;;;3.03;;
78167;SDS011;67410;42.698;23.378;2024-01-16T05:38:25;8.48;;;3.22;;
78167;SDS011;67410;42.698;23.378;2024-01-16T05:40:51;8.40;;;3.17;;
78167;SDS011;67410;42.698;23.378;2024-01-16T05:43:17;78.45;;;31.98;;
78167;SDS011;67410;42.698;23.378;2024-01-16T05:45:43;7.53;;;3.38;;
78167;SDS011;67410;42.698;23.378;2024-01-16T05:48:09;5.22;;;3.17;;
78167;SDS011;67410;42.698;23.378;2024-01-16T05:50:36;6.38;;;2.90;;
78167;SDS011;67410;42.698;23.378;2024-01-16T05:53:03;6.57;;;3.55;;
78167;SDS011;67410;42.698;23.378;2024-01-16T05:55:29;9.68;;;5.55;;
78167;SDS011;67410;42.698;23.378;2024-01-16T05:57:58;5.85;;;2.80;;
78167;SDS011;67410;42.698;23.378;2024-01-16T06:00:27;6.55;;;3.00;;
78167;SDS011;67410;42.698;23.378;2024-01-16T06:02:53;7.25;;;4.15;;
78167;SDS011;67410;42.698;23.378;2024-01-16T06:05:19;6.85;;;3.47;;
78167;SDS011;67410;42.698;23.378;2024-01-16T06:07:45;9.60;;;4.55;;
78167;SDS011;67410;42.698;23.378;2024-01-16T06:10:12;15.88;;;7.05;;
78167;SDS011;67410;42.698;23.378;2024-01-16T06:12:42;13.25;;;6.68;;
78167;SDS011;67410;42.698;23.378;2024-01-16T06:15:08;8.70;;;4.25;;
78167;SDS011;67410;42.698;23.378;2024-01-16T06:17:36;8.07;;;5.03;;
78167;SDS011;67410;42.698;23.378;2024-01-16T06:20:03;6.07;;;3.80;;
78167;SDS011;67410;42.698;23.378;2024-01-16T06:22:30;11.20;;;4.80;;
78167;SDS011;67410;42.698;23.378;2024-01-16T06:24:56;9.15;;;5.03;;
78167;SDS011;67410;42.698;23.378;2024-01-16T06:27:22;10.35;;;4.75;;
78167;SDS011;67410;42.698;23.378;2024-01-16T06:29:48;6.85;;;4.05;;
78167;SDS011;67410;42.698;23.378;2024-01-16T06:32:14;7.50;;;4.25;;
78167;SDS011;67410;42.698;23.378;2024-01-16T06:34:40;5.88;;;4.05;;
78167;SDS011;67410;42.698;23.378;2024-01-16T06:37:06;10.80;;;5.78;;
78167;SDS011;67410;42.698;23.378;2024-01-16T06:39:33;11.95;;;5.40;;
78167;SDS011;67410;42.698;23.378;2024-01-16T06:42:01;9.45;;;5.03;;
78167;SDS011;67410;42.698;23.378;2024-01-16T06:44:30;7.45;;;3.78;;
78167;SDS011;67410;42.698;23.378;2024-01-16T06:46:56;10.80;;;4.85;;
78167;SDS011;67410;42.698;23.378;2024-01-16T06:49:22;6.13;;;3.72;;
78167;SDS011;67410;42.698;23.378;2024-01-16T06:51:48;8.05;;;4.30;;
78167;SDS011;67410;42.698;23.378;2024-01-16T06:54:14;8.52;;;4.35;;
78167;SDS011;67410;42.698;23.378;2024-01-16T06:56:40;9.63;;;4.88;;
78167;SDS011;67410;42.698;23.378;2024-01-16T06:59:06;7.57;;;4.20;;
78167;SDS011;67410;42.698;23.378;2024-01-16T07:01:32;7.38;;;4.30;;
78167;SDS011;67410;42.698;23.378;2024-01-16T07:03:59;8.23;;;4.20;;
78167;SDS011;67410;42.698;23.378;2024-01-16T07:06:25;7.53;;;4.15;;
78167;SDS011;67410;42.698;23.378;2024-01-16T07:08:51;8.40;;;4.43;;
78167;SDS011;67410;42.698;23.378;2024-01-16T07:11:17;6.45;;;3.53;;
78167;SDS011;67410;42.698;23.378;2024-01-16T07:13:43;9.32;;;3.92;;
78167;SDS011;67410;42.698;23.378;2024-01-16T07:16:09;10.38;;;5.18;;
78167;SDS011;67410;42.698;23.378;2024-01-16T07:18:37;6.72;;;3.63;;
78167;SDS011;67410;42.698;23.378;2024-01-16T07:21:04;6.63;;;3.40;;
78167;SDS011;67410;42.698;23.378;2024-01-16T07:23:30;5.35;;;4.05;;
78167;SDS011;67410;42.698;23.378;2024-01-16T07:25:56;13.80;;;7.35;;
78167;SDS011;67410;42.698;23.378;2024-01-16T07:28:22;9.52;;;4.95;;
78167;SDS011;67410;42.698;23.378;2024-01-16T07:30:48;8.15;;;5.00;;
78167;SDS011;67410;42.698;23.378;2024-01-16T07:33:15;8.68;;;4.85;;
78167;SDS011;67410;42.698;23.378;2024-01-16T07:35:41;8.80;;;5.55;;
78167;SDS011;67410;42.698;23.378;2024-01-16T07:38:09;6.60;;;4.38;;
78167;SDS011;67410;42.698;23.378;2024-01-16T07:40:35;10.70;;;6.45;;
78167;SDS011;67410;42.698;23.378;2024-01-16T07:43:01;6.45;;;3.40;;
78167;SDS011;67410;42.698;23.378;2024-01-16T07:45:27;3.85;;;2.70;;
78167;SDS011;67410;42.698;23.378;2024-01-16T07:47:53;6.13;;;3.35;;
78167;SDS011;67410;42.698;23.378;2024-01-16T07:50:19;6.07;;;2.72;;
78167;SDS011;67410;42.698;23.378;2024-01-16T07:52:46;5.95;;;3.03;;
78167;SDS011;67410;42.698;23.378;2024-01-16T07:55:12;8.32;;;4.00;;
78167;SDS011;67410;42.698;23.378;2024-01-16T07:57:38;7.57;;;4.25;;
78167;SDS011;67410;42.698;23.378;2024-01-16T08:00:04;10.02;;;5.50;;
78167;SDS011;67410;42.698;23.378;2024-01-16T08:02:34;6.15;;;4.00;;
78167;SDS011;67410;42.698;23.378;2024-01-16T08:05:00;11.23;;;5.95;;
78167;SDS011;67410;42.698;23.378;2024-01-16T08:07:26;5.90;;;3.33;;
78167;SDS011;67410;42.698;23.378;2024-01-16T08:09:53;6.75;;;3.95;;
78167;SDS011;67410;42.698;23.378;2024-01-16T08:12:19;8.60;;;3.55;;
78167;SDS011;67410;42.698;23.378;2024-01-16T08:14:45;8.57;;;3.80;;
78167;SDS011;67410;42.698;23.378;2024-01-16T08:17:11;12.40;;;5.05;;
78167;SDS011;67410;42.698;23.378;2024-01-16T08:19:37;9.68;;;4.78;;
78167;SDS011;67410;42.698;23.378;2024-01-16T08:22:03;8.57;;;4.50;;
78167;SDS011;67410;42.698;23.378;2024-01-16T08:24:31;13.32;;;6.22;;
78167;SDS011;67410;42.698;23.378;2024-01-16T08:26:57;20.40;;;9.27;;
78167;SDS011;67410;42.698;23.378;2024-01-16T08:29:24;10.20;;;4.78;;
78167;SDS011;67410;42.698;23.378;2024-01-16T08:31:50;12.77;;;5.95;;
78167;SDS011;67410;42.698;23.378;2024-01-16T08:34:19;8.40;;;4.95;;
78167;SDS011;67410;42.698;23.378;2024-01-16T08:36:45;8.95;;;5.32;;
78167;SDS011;67410;42.698;23.378;2024-01-16T08:39:13;7.13;;;4.90;;
78167;SDS011;67410;42.698;23.378;2024-01-16T08:41:39;11.82;;;5.13;;
78167;SDS011;67410;42.698;23.378;2024-01-16T08:44:05;4.10;;;3.20;;
78167;SDS011;67410;42.698;23.378;2024-01-16T08:46:32;5.78;;;3.65;;
78167;SDS011;67410;42.698;23.378;2024-01-16T08:48:59;7.47;;;4.05;;
78167;SDS011;67410;42.698;23.378;2024-01-16T08:51:25;12.27;;;5.35;;
78167;SDS011;67410;42.698;23.378;2024-01-16T08:53:51;7.60;;;3.95;;
78167;SDS011;67410;42.698;23.378;2024-01-16T08:56:17;8.18;;;3.83;;
78167;SDS011;67410;42.698;23.378;2024-01-16T08:58:43;6.53;;;3.38;;
78167;SDS011;67410;42.698;23.378;2024-01-16T09:01:09;7.35;;;4.68;;
78167;SDS011;67410;42.698;23.378;2024-01-16T09:03:36;9.38;;;3.72;;
78167;SDS011;67410;42.698;23.378;2024-01-16T09:06:02;6.07;;;3.60;;
78167;SDS011;67410;42.698;23.378;2024-01-16T09:08:28;11.15;;;3.95;;
78167;SDS011;67410;42.698;23.378;2024-01-16T09:10:55;9.40;;;4.45;;
78167;SDS011;67410;42.698;23.378;2024-01-16T09:13:22;5.88;;;3.60;;
78167;SDS011;67410;42.698;23.378;2024-01-16T09:15:49;8.27;;;4.15;;
78167;SDS011;67410;42.698;23.378;2024-01-16T09:18:15;8.43;;;4.15;;
78167;SDS011;67410;42.698;23.378;2024-01-16T09:20:42;6.70;;;3.58;;
78167;SDS011;67410;42.698;23.378;2024-01-16T09:23:08;4.55;;;3.13;;
78167;SDS011;67410;42.698;23.378;2024-01-16T09:25:35;5.72;;;3.20;;
78167;SDS011;67410;42.698;23.378;2024-01-16T09:28:01;4.90;;;3.22;;
78167;SDS011;67410;42.698;23.378;2024-01-16T09:30:27;7.35;;;4.07;;
78167;SDS011;67410;42.698;23.378;2024-01-16T09:32:54;13.05;;;3.72;;
78167;SDS011;67410;42.698;23.378;2024-01-16T09:35:20;10.75;;;4.65;;
78167;SDS011;67410;42.698;23.378;2024-01-16T09:37:47;11.07;;;4.57;;
78167;SDS011;67410;42.698;23.378;2024-01-16T09:40:13;8.07;;;3.45;;
78167;SDS011;67410;42.698;23.378;2024-01-16T09:42:40;5.47;;;3.60;;
78167;SDS011;67410;42.698;23.378;2024-01-16T09:45:07;6.80;;;3.33;;
78167;SDS011;67410;42.698;23.378;2024-01-16T09:47:34;5.32;;;2.97;;
78167;SDS011;67410;42.698;23.378;2024-01-16T09:50:02;8.93;;;4.90;;
78167;SDS011;67410;42.698;23.378;2024-01-16T09:52:30;9.20;;;5.60;;
78167;SDS011;67410;42.698;23.378;2024-01-16T09:54:56;12.73;;;4.88;;
78167;SDS011;67410;42.698;23.378;2024-01-16T09:57:24;10.15;;;3.15;;
78167;SDS011;67410;42.698;23.378;2024-01-16T09:59:51;8.60;;;4.30;;
78167;SDS011;67410;42.698;23.378;2024-01-16T10:02:19;167.50;;;61.05;;
78167;SDS011;67410;42.698;23.378;2024-01-16T10:04:46;5.85;;;3.35;;
78167;SDS011;67410;42.698;23.378;2024-01-16T10:07:12;9.52;;;4.40;;
78167;SDS011;67410;42.698;23.378;2024-01-16T10:09:41;7.78;;;4.15;;
78167;SDS011;67410;42.698;23.378;2024-01-16T10:12:08;7.25;;;4.22;;
78167;SDS011;67410;42.698;23.378;2024-01-16T10:14:36;6.28;;;3.83;;
78167;SDS011;67410;42.698;23.378;2024-01-16T10:17:04;6.00;;;2.97;;
78167;SDS011;67410;42.698;23.378;2024-01-16T10:19:51;6.50;;;4.07;;
78167;SDS011;67410;42.698;23.378;2024-01-16T10:22:20;7.82;;;3.50;;
78167;SDS011;67410;42.698;23.378;2024-01-16T10:24:48;22.77;;;12.02;;
78167;SDS011;67410;42.698;23.378;2024-01-16T10:27:17;11.10;;;4.63;;
78167;SDS011;67410;42.698;23.378;2024-01-16T10:29:56;7.38;;;4.43;;
78167;SDS011;67410;42.698;23.378;2024-01-16T10:32:30;14.10;;;9.25;;
78167;SDS011;67410;42.698;23.378;2024-01-16T10:35:19;10.73;;;4.75;;
78167;SDS011;67410;42.698;23.378;2024-01-16T10:37:47;4.70;;;2.83;;
78167;SDS011;67410;42.698;23.378;2024-01-16T10:40:18;6.40;;;3.53;;
78167;SDS011;67410;42.698;23.378;2024-01-16T10:42:45;10.50;;;4.97;;
78167;SDS011;67410;42.698;23.378;2024-01-16T10:45:17;6.10;;;3.22;;
78167;SDS011;67410;42.698;23.378;2024-01-16T10:47:48;4.70;;;2.97;;
78167;SDS011;67410;42.698;23.378;2024-01-16T10:50:15;6.47;;;2.92;;
78167;SDS011;67410;42.698;23.378;2024-01-16T10:52:46;8.18;;;2.58;;
78167;SDS011;67410;42.698;23.378;2024-01-16T10:55:21;8.32;;;3.45;;
78167;SDS011;67410;42.698;23.378;2024-01-16T10:57:51;10.75;;;3.53;;
78167;SDS011;67410;42.698;23.378;2024-01-16T11:00:19;5.05;;;2.55;;
78167;SDS011;67410;42.698;23.378;2024-01-16T11:05:41;8.07;;;4.93;;
78167;SDS011;67410;42.698;23.378;2024-01-16T11:08:08;15.57;;;7.15;;
78167;SDS011;67410;42.698;23.378;2024-01-16T11:10:39;6.55;;;3.00;;
78167;SDS011;67410;42.698;23.378;2024-01-16T11:13:06;6.70;;;3.22;;
78167;SDS011;67410;42.698;23.378;2024-01-16T11:15:33;6.40;;;3.28;;
78167;SDS011;67410;42.698;23.378;2024-01-16T11:18:00;20.85;;;10.10;;
78167;SDS011;67410;42.698;23.378;2024-01-16T11:20:28;9.15;;;4.63;;
78167;SDS011;67410;42.698;23.378;2024-01-16T11:22:54;7.35;;;3.83;;
78167;SDS011;67410;42.698;23.378;2024-01-16T11:25:34;21.73;;;9.05;;
78167;SDS011;67410;42.698;23.378;2024-01-16T11:28:10;9.35;;;4.60;;
78167;SDS011;67410;42.698;23.378;2024-01-16T11:30:38;7.32;;;2.95;;
78167;SDS011;67410;42.698;23.378;2024-01-16T11:33:04;7.50;;;3.72;;
78167;SDS011;67410;42.698;23.378;2024-01-16T11:35:34;7.65;;;3.72;;
78167;SDS011;67410;42.698;23.378;2024-01-16T11:38:11;6.25;;;2.92;;
78167;SDS011;67410;42.698;23.378;2024-01-16T11:40:46;12.85;;;5.20;;
78167;SDS011;67410;42.698;23.378;2024-01-16T11:46:01;12.05;;;6.20;;
78167;SDS011;67410;42.698;23.378;2024-01-16T11:48:31;27.23;;;10.07;;
78167;SDS011;67410;42.698;23.378;2024-01-16T11:50:57;19.88;;;6.72;;
78167;SDS011;67410;42.698;23.378;2024-01-16T12:01:30;15.10;;;7.18;;
78167;SDS011;67410;42.698;23.378;2024-01-16T12:04:03;73.85;;;29.30;;
78167;SDS011;67410;42.698;23.378;2024-01-16T12:06:30;9.15;;;4.68;;
78167;SDS011;67410;42.698;23.378;2024-01-16T12:09:13;12.45;;;5.15;;
78167;SDS011;67410;42.698;23.378;2024-01-16T12:11:40;20.55;;;8.35;;
78167;SDS011;67410;42.698;23.378;2024-01-16T12:14:09;34.33;;;13.57;;
78167;SDS011;67410;42.698;23.378;2024-01-16T12:16:35;8.93;;;4.93;;
78167;SDS011;67410;42.698;23.378;2024-01-16T12:19:09;10.57;;;3.53;;
78167;SDS011;67410;42.698;23.378;2024-01-16T12:21:40;19.67;;;8.23;;
78167;SDS011;67410;42.698;23.378;2024-01-16T12:24:07;22.17;;;8.80;;
78167;SDS011;67410;42.698;23.378;2024-01-16T12:26:34;36.58;;;13.60;;
78167;SDS011;67410;42.698;23.378;2024-01-16T12:29:00;30.65;;;10.32;;
78167;SDS011;67410;42.698;23.378;2024-01-16T12:31:27;9.98;;;4.93;;
78167;SDS011;67410;42.698;23.378;2024-01-16T12:33:55;7.40;;;3.00;;
78167;SDS011;67410;42.698;23.378;2024-01-16T12:36:31;9.02;;;4.45;;
78167;SDS011;67410;42.698;23.378;2024-01-16T12:38:57;33.20;;;14.88;;
78167;SDS011;67410;42.698;23.378;2024-01-16T12:41:23;14.45;;;8.07;;
78167;SDS011;67410;42.698;23.378;2024-01-16T12:43:52;13.60;;;6.65;;
78167;SDS011;67410;42.698;23.378;2024-01-16T12:46:18;8.20;;;3.83;;
78167;SDS011;67410;42.698;23.378;2024-01-16T12:48:45;6.63;;;3.00;;
78167;SDS011;67410;42.698;23.378;2024-01-16T12:51:19;3.13;;;2.15;;
78167;SDS011;67410;42.698;23.378;2024-01-16T12:53:48;10.57;;;3.58;;
78167;SDS011;67410;42.698;23.378;2024-01-16T12:56:18;11.30;;;4.75;;
78167;SDS011;67410;42.698;23.378;2024-01-16T12:58:46;88.68;;;32.38;;
78167;SDS011;67410;42.698;23.378;2024-01-16T13:01:25;17.25;;;5.72;;
78167;SDS011;67410;42.698;23.378;2024-01-16T13:03:54;6.45;;;3.80;;
78167;SDS011;67410;42.698;23.378;2024-01-16T13:06:21;6.43;;;3.60;;
78167;SDS011;67410;42.698;23.378;2024-01-16T13:08:48;7.47;;;4.28;;
78167;SDS011;67410;42.698;23.378;2024-01-16T13:11:16;7.13;;;2.85;;
78167;SDS011;67410;42.698;23.378;2024-01-16T13:13:46;7.47;;;2.83;;
78167;SDS011;67410;42.698;23.378;2024-01-16T13:16:32;6.88;;;3.88;;
78167;SDS011;67410;42.698;23.378;2024-01-16T13:19:01;5.63;;;3.25;;
78167;SDS011;67410;42.698;23.378;2024-01-16T13:21:29;11.00;;;5.95;;
78167;SDS011;67410;42.698;23.378;2024-01-16T13:23:55;8.98;;;4.65;;
78167;SDS011;67410;42.698;23.378;2024-01-16T13:26:22;4.70;;;2.88;;
78167;SDS011;67410;42.698;23.378;2024-01-16T13:28:48;17.58;;;9.05;;
78167;SDS011;67410;42.698;23.378;2024-01-16T13:31:14;8.82;;;3.63;;
78167;SDS011;67410;42.698;23.378;2024-01-16T13:33:41;9.63;;;4.40;;
78167;SDS011;67410;42.698;23.378;2024-01-16T13:36:09;6.93;;;3.75;;
78167;SDS011;67410;42.698;23.378;2024-01-16T13:38:35;6.45;;;3.85;;
78167;SDS011;67410;42.698;23.378;2024-01-16T13:41:01;5.50;;;2.90;;
78167;SDS011;67410;42.698;23.378;2024-01-16T13:43:27;5.90;;;3.50;;
78167;SDS011;67410;42.698;23.378;2024-01-16T13:45:54;7.90;;;3.75;;
78167;SDS011;67410;42.698;23.378;2024-01-16T13:48:20;4.78;;;2.80;;
78167;SDS011;67410;42.698;23.378;2024-01-16T13:50:46;5.40;;;3.00;;
78167;SDS011;67410;42.698;23.378;2024-01-16T13:53:13;4.90;;;2.92;;
78167;SDS011;67410;42.698;23.378;2024-01-16T13:55:40;9.68;;;4.50;;
78167;SDS011;67410;42.698;23.378;2024-01-16T14:00:36;3.15;;;2.50;;
78167;SDS011;67410;42.698;23.378;2024-01-16T14:03:02;6.20;;;3.38;;
78167;SDS011;67410;42.698;23.378;2024-01-16T14:05:29;5.93;;;3.50;;
78167;SDS011;67410;42.698;23.378;2024-01-16T14:07:55;4.82;;;2.70;;
78167;SDS011;67410;42.698;23.378;2024-01-16T14:10:21;9.52;;;3.75;;
78167;SDS011;67410;42.698;23.378;2024-01-16T14:12:50;22.73;;;9.38;;
78167;SDS011;67410;42.698;23.378;2024-01-16T14:15:20;11.77;;;5.00;;
78167;SDS011;67410;42.698;23.378;2024-01-16T14:17:50;14.60;;;6.88;;
78167;SDS011;67410;42.698;23.378;2024-01-16T14:20:18;9.02;;;5.35;;
78167;SDS011;67410;42.698;23.378;2024-01-16T14:22:49;12.00;;;6.28;;
78167;SDS011;67410;42.698;23.378;2024-01-16T14:25:17;9.52;;;5.95;;
78167;SDS011;67410;42.698;23.378;2024-01-16T14:27:45;8.98;;;5.68;;
78167;SDS011;67410;42.698;23.378;2024-01-16T14:32:43;9.43;;;5.13;;
78167;SDS011;67410;42.698;23.378;2024-01-16T14:35:10;13.95;;;7.38;;
78167;SDS011;67410;42.698;23.378;2024-01-16T14:37:38;8.68;;;4.38;;
78167;SDS011;67410;42.698;23.378;2024-01-16T14:40:06;6.68;;;3.30;;
78167;SDS011;67410;42.698;23.378;2024-01-16T14:42:41;13.52;;;6.35;;
78167;SDS011;67410;42.698;23.378;2024-01-16T14:45:13;10.30;;;4.43;;
78167;SDS011;67410;42.698;23.378;2024-01-16T14:47:40;25.20;;;6.90;;